Latest Coastal Weather Observations for Port Macquarie Airport

IDN60701

Issued at 1:21 am EDT Saturday 21 October 2017 (issued every 10 minutes, with the page automatically refreshed every 10 minutes)

About coastal observations | Map of coastal stations | Coastal observations for NSW | Marine services | Other Formats
Station Details ID: 060139 Name: PORT MACQUARIE AIRPORT AWS Lat: -31.43 Lon: 152.87 Height: 4.2 m
Data from the previous 72 hours. | See also: Recent months at Port Macquarie Airport
Date/Time
EDT
Temp
°C
Wind Pressure Rain since
9am
mm
Weather Cloud Vis
km
Sea
Height
m
Swell
Dir  Spd
kts
Gust
kts
hPa Trend Height
m
Period
s
Dir
21/01:19am 15.8 SSW 15 28 1019.4 - 13.8 - Partly cloudy 7 - - - -
21/01:00am 16.3 SSW 14 21 1019.4 - 13.4 - Partly cloudy 8 - - - -
21/12:30am 16.2 SSW 12 19 1019.6 - 12.8 - Partly cloudy 10 - - - -
21/12:03am 16.1 SSW 13 19 1019.9 - 12.8 - Partly cloudy 7 - - - -
21/12:00am 16.1 SSW 13 19 1019.8 - 12.6 Rain Cloudy 7 - - - -
 
Date/Time
EDT
Temp
°C
Wind Pressure Rain since
9am
mm
Weather Cloud Vis
km
Sea
Height
m
Swell
Dir  Spd
kts
Gust
kts
hPa Trend Height
m
Period
s
Dir
20/11:34pm 16.5 SSW 12 21 1019.8 - 11.8 - Partly cloudy 5 - - - -
20/11:30pm 16.4 SSW 11 15 1019.9 - 11.6 - Partly cloudy 6 - - - -
20/11:00pm 16.5 SSW 12 18 1019.8 - 10.8 - Partly cloudy 7 - - - -
20/10:30pm 16.7 SW 13 18 1019.6 - 10.0 - Partly cloudy 9 - - - -
20/10:04pm 16.9 SW 14 21 1019.5 - 9.4 - Partly cloudy 8 - - - -
20/10:00pm 16.8 SW 15 20 1019.5 - 9.4 - Partly cloudy 7 - - - -
20/09:44pm 17.0 SW 15 21 1019.5 - 9.2 - Partly cloudy 5 - - - -
20/09:30pm 17.2 SW 15 23 1019.4 - 9.0 - Partly cloudy 9 - - - -
20/09:03pm 18.0 WSW 11 19 1019.2 - 8.6 - Partly cloudy 8 - - - -
20/09:00pm 18.2 WSW 10 19 1019.2 - 8.6 Rain Cloudy 8 - - - -
20/08:59pm 18.2 WSW 10 19 1019.2 - 8.6 - Partly cloudy 8 - - - -
20/08:47pm 18.5 SW 9 14 1019.2 - 8.2 - Partly cloudy 9 - - - -
20/08:44pm 18.5 SW 9 13 1019.2 - 8.2 - Partly cloudy 8 - - - -
20/08:38pm 18.6 SW 7 11 1019.1 - 8.0 - Partly cloudy 6 - - - -
20/08:30pm 18.6 SSW 7 9 1019.1 - 7.4 - Partly cloudy 5 - - - -
20/08:16pm 18.9 SW 7 9 1018.9 - 5.8 - Partly cloudy 5 - - - -
20/08:00pm 19.0 WSW 5 7 1018.8 - 4.6 - Partly cloudy 10 - - - -
20/07:56pm 19.0 WSW 5 7 1018.7 - 4.6 - Partly cloudy 10 - - - -
20/07:49pm 19.0 WSW 5 6 1018.6 - 4.4 - Partly cloudy 8 - - - -
20/07:30pm 19.0 SW 4 6 1018.2 - 3.6 - Partly cloudy 4 - - - -
20/07:23pm 19.0 SW 5 6 1018.2 - 3.0 - Partly cloudy 5 - - - -
20/07:00pm 18.9 SSW 5 6 1018.0 - 1.6 - Partly cloudy 8 - - - -
20/06:30pm 19.3 SSW 4 5 1017.8 - 0.6 - Partly cloudy 10 - - - -
20/06:00pm 19.5 S 3 4 1017.6 - 0.2 Recent precip. Cloudy 10 - - - -
20/05:30pm 19.7 CALM 0 4 1017.3 - 0.2 - Partly cloudy 10 - - - -
20/05:00pm 19.8 S 5 8 1017.2 - 0.0 - Partly cloudy 10 - - - -
20/04:30pm 20.2 SSW 6 9 1017.2 - 0.0 - Partly cloudy 10 - - - -
20/04:00pm 20.6 SSW 7 9 1017.1 - 0.0 - Cloudy 10 - - - -
20/03:30pm 21.4 S 7 10 1017.4 - 0.0 - Cloudy 10 - - - -
20/03:00pm 21.8 SSW 7 9 1017.8 - 0.0 - - 10 - - - -
20/02:30pm 22.1 S 7 9 1017.9 - 0.0 - Cloudy 10 - - - -
20/02:00pm 22.6 SSE 8 12 1017.8 - 0.0 - Cloudy 10 - - - -
20/01:30pm 22.8 SSE 11 15 1018.0 - 0.0 - Cloudy 10 - - - -
20/01:00pm 24.1 SE 10 15 1018.3 - 0.0 - Partly cloudy 10 - - - -
20/12:30pm 24.9 SSE 12 17 1018.5 - 0.0 - - 10 - - - -
20/12:00pm 25.2 SSE 11 18 1018.8 - 0.0 - - 10 - - - -
20/11:30am 26.1 SSE 12 17 1018.8 - 0.0 - - 10 - - - -
20/11:00am 24.9 ENE 5 7 1019.0 - 0.0 - - 10 - - - -
20/10:30am 24.3 ESE 3 5 1019.1 - 0.0 - - 10 - - - -
20/10:00am 23.4 NE 4 5 1019.4 - 0.0 - - 10 - - - -
20/09:30am 22.8 E 3 5 1019.2 - 0.0 - - 10 - - - -
20/09:00am 21.0 NNW 4 7 1019.4 - 0.0 - - 10 - - - -
20/08:30am 19.9 N 6 8 1019.1 - 0.0 - - 10 - - - -
20/08:00am 18.9 NNW 5 6 1019.1 - 0.0 - - 10 - - - -
20/07:30am 17.5 NNE 4 5 1019.1 - 0.0 - - 10 - - - -
20/07:00am 16.3 N 2 4 1019.1 - 0.0 - - 10 - - - -
20/06:30am 15.6 N 4 5 1018.9 - 0.0 - - 10 - - - -
20/06:00am 15.6 NNE 5 6 1018.7 - 0.0 - - 10 - - - -
20/05:30am 15.8 N 5 6 1018.4 - 0.0 - - 10 - - - -
20/05:00am 15.9 N 5 7 1018.5 - 0.0 - - 10 - - - -
20/04:30am 16.1 N 5 8 1018.4 - 0.0 - - 10 - - - -
20/04:00am 16.5 N 6 8 1018.8 - 0.0 - - 10 - - - -
20/03:30am 16.7 N 7 10 1019.1 - 0.0 - - 10 - - - -
20/03:00am 16.8 N 5 7 1019.4 - 0.0 - - 10 - - - -
20/02:30am 17.1 N 6 7 1019.7 - 0.0 - - 10 - - - -
20/02:00am 17.6 N 7 9 1020.2 - 0.0 - - 10 - - - -
20/01:30am 18.1 N 9 11 1020.6 - 0.0 - - 10 - - - -
20/01:00am 18.2 N 8 11 1020.9 - 0.0 - - 10 - - - -
20/12:30am 18.5 NNE 9 12 1021.4 - 0.0 - - 10 - - - -
20/12:00am 18.6 N 9 12 1021.9 - 0.0 - - 10 - - - -
 
Date/Time
EDT
Temp
°C
Wind Pressure Rain since
9am
mm
Weather Cloud Vis
km
Sea
Height
m
Swell
Dir  Spd
kts
Gust
kts
hPa Trend Height
m
Period
s
Dir
19/11:30pm 19.0 NNE 9 13 1022.2 - 0.0 - - 10 - - - -
19/11:00pm 19.0 N 9 12 1022.5 - 0.0 - - 10 - - - -
19/10:30pm 19.0 N 10 13 1022.5 - 0.0 - - 10 - - - -
19/10:00pm 19.2 N 8 11 1022.7 - 0.0 - - 10 - - - -
19/09:30pm 19.1 N 9 12 1022.8 - 0.0 - - 10 - - - -
19/09:00pm 19.5 NNE 11 14 1022.5 - 0.0 - - 10 - - - -
19/08:30pm 19.5 NNE 10 13 1022.5 - 0.0 - - 10 - - - -
19/08:00pm 19.7 NNE 10 13 1022.5 - 0.0 - - 10 - - - -
19/07:30pm 20.4 NNE 12 17 1022.3 - 0.0 - - 10 - - - -
19/07:00pm 20.8 NNE 13 18 1022.2 - 0.0 - - 10 - - - -
19/06:30pm 21.4 NNE 14 20 1022.0 - 0.0 - - 10 - - - -
19/06:00pm 22.0 NNE 15 21 1022.0 - 0.0 - - 10 - - - -
19/05:30pm 22.6 NNE 16 26 1021.9 - 0.0 - - 10 - - - -
19/05:29pm 22.5 NNE 16 26 1021.9 - 0.0 - - 10 - - - -
19/05:00pm 22.5 NNE 19 27 1022.0 - 0.0 - - 10 - - - -
19/04:30pm 23.2 NNE 16 23 1022.1 - 0.0 - - 10 - - - -
19/04:09pm 23.2 NE 17 27 1022.1 - 0.0 - - 10 - - - -
19/04:00pm 23.0 NE 19 25 1022.2 - 0.0 - - 10 - - - -
19/03:30pm 23.4 NE 18 24 1022.6 - 0.0 - - 10 - - - -
19/03:17pm 23.6 NE 15 25 1022.8 - 0.0 - - 10 - - - -
19/03:00pm 24.0 NE 17 25 1023.0 - 0.0 - - 10 - - - -
19/02:30pm 24.3 NE 15 21 1023.5 - 0.0 - - 10 - - - -
19/02:00pm 24.2 NNE 16 22 1024.0 - 0.0 - Partly cloudy 10 - - - -
19/01:30pm 24.3 NE 15 23 1024.4 - 0.0 - Partly cloudy 10 - - - -
19/01:00pm 23.3 NE 15 20 1024.9 - 0.0 - Partly cloudy 10 - - - -
19/12:30pm 22.9 NE 16 20 1025.3 - 0.0 - Partly cloudy 10 - - - -
19/12:00pm 23.0 NE 13 19 1025.6 - 0.0 - Cloudy 10 - - - -
19/11:30am 23.7 N 13 19 1026.0 - 0.0 - Partly cloudy 10 - - - -
19/11:00am 23.4 N 11 16 1026.5 - 0.0 - Partly cloudy 10 - - - -
19/10:30am 22.0 N 10 14 1026.8 - 0.0 - Partly cloudy 10 - - - -
19/10:00am 21.3 N 13 16 1027.3 - 0.0 - Partly cloudy 10 - - - -
19/09:30am 21.9 NNE 11 16 1027.1 - 0.0 - Partly cloudy 10 - - - -
19/09:00am 20.9 N 9 12 1027.1 - 0.0 - Cloudy 10 - - - -
19/08:30am 20.4 N 8 10 1026.9 - 0.0 - Cloudy 10 - - - -
19/08:00am 18.7 N 7 9 1026.9 - 0.0 - Partly cloudy 10 - - - -
19/07:30am 17.7 N 6 8 1026.7 - 0.0 - - 10 - - - -
19/07:00am 16.9 N 1 3 1026.5 - 0.0 - - 10 - - - -
19/06:30am 15.9 N 3 4 1026.2 - 0.0 - - 10 - - - -
19/06:00am 16.5 N 4 7 1026.0 - 0.0 - Cloudy 10 - - - -
19/05:30am 15.7 N 3 5 1025.9 - 0.0 - Partly cloudy 10 - - - -
19/05:00am 15.9 N 5 6 1025.9 - 0.0 - Partly cloudy 10 - - - -
19/04:30am 16.2 N 4 5 1025.9 - 0.0 - Partly cloudy 10 - - - -
19/04:00am 15.1 NE 1 3 1026.0 - 0.0 - Partly cloudy 10 - - - -
19/03:30am 14.8 NE 3 4 1026.2 - 0.0 - Partly cloudy 10 - - - -
19/03:00am 14.2 E 3 4 1026.6 - 0.0 - Cloudy 10 - - - -
19/02:30am 13.2 CALM 0 0 1026.9 - 0.0 - Partly cloudy 10 - - - -
19/02:00am 13.0 CALM 0 0 1027.1 - 0.0 - - 10 - - - -
19/01:30am 13.0 CALM 0 0 1027.3 - 0.0 - - 10 - - - -
19/01:00am 14.0 CALM 0 0 1027.7 - 0.0 - - 10 - - - -
19/12:30am 15.2 CALM 0 0 1027.9 - 0.0 - Partly cloudy 10 - - - -
19/12:00am 15.4 N 3 4 1028.2 - 0.0 - Mostly clear 10 - - - -
 
Date/Time
EDT
Temp
°C
Wind Pressure Rain since
9am
mm
Weather Cloud Vis
km
Sea
Height
m
Swell
Dir  Spd
kts
Gust
kts
hPa Trend Height
m
Period
s
Dir
18/11:30pm 15.9 N 3 5 1028.4 - 0.0 - Partly cloudy 10 - - - -
18/11:00pm 17.1 N 4 5 1028.4 - 0.0 - - 10 - - - -
18/10:30pm 16.8 N 3 4 1028.3 - 0.0 - Partly cloudy 10 - - - -
18/10:00pm 17.5 NNW 4 5 1028.4 - 0.0 - Partly cloudy 10 - - - -
18/09:30pm 17.8 N 4 5 1028.2 - 0.0 - - 10 - - - -
18/09:00pm 19.1 NNE 6 8 1028.0 - 0.0 - - 10 - - - -
18/08:30pm 19.4 NNE 6 8 1027.9 - 0.0 - - 10 - - - -
18/08:00pm 19.8 NNE 7 10 1027.6 - 0.0 - Partly cloudy 10 - - - -
18/07:30pm 20.1 NE 8 11 1027.4 - 0.0 - Partly cloudy 10 - - - -
18/07:00pm 20.1 NE 7 10 1027.2 - 0.0 - Partly cloudy 10 - - - -
18/06:30pm 20.6 NE 8 11 1027.0 - 0.0 - - 10 - - - -
18/06:00pm 20.9 NE 8 11 1026.7 - 0.0 - Cloudy 10 - - - -
18/05:30pm 21.0 NE 9 15 1026.8 - 0.0 - Cloudy 10 - - - -
18/05:00pm 20.5 ENE 13 16 1026.6 - 0.0 - Partly cloudy 10 - - - -
18/04:30pm 21.8 NE 12 17 1026.5 - 0.0 - Partly cloudy 10 - - - -
18/04:00pm 21.8 NE 11 15 1026.5 - 0.0 - Partly cloudy 10 - - - -
18/03:30pm 22.1 NNE 11 15 1026.5 - 0.0 - Partly cloudy 10 - - - -
18/03:00pm 22.6 NE 13 17 1026.8 - 0.0 - Cloudy 10 - - - -
18/02:30pm 22.4 NE 15 20 1027.0 - 0.0 - Partly cloudy 10 - - - -
18/02:00pm 22.7 NNE 11 16 1027.4 - 0.0 - Partly cloudy 10 - - - -
18/01:30pm 22.2 NE 12 18 1027.8 - 0.0 - Partly cloudy 10 - - - -
18/01:00pm 21.5 NE 13 24 1028.2 - 0.0 - Partly cloudy 10 - - - -
18/12:30pm 22.1 NE 13 20 1028.3 - 0.0 - Cloudy 10 - - - -
18/12:00pm 23.2 NE 11 19 1028.6 - 0.0 - Mostly cloudy 10 - - - -
18/11:30am 23.5 ENE 15 21 1028.7 - 0.0 - Partly cloudy 10 - - - -
18/11:00am 22.1 ENE 13 17 1029.0 - 0.0 - Partly cloudy 10 - - - -
18/10:30am 21.7 E 13 17 1029.2 - 0.0 - Cloudy 10 - - - -
18/10:00am 21.8 ENE 10 14 1029.2 - 0.0 - Cloudy 10 - - - -
18/09:30am 21.0 ENE 12 17 1029.0 - 0.0 - Cloudy 10 - - - -
18/09:00am 20.8 ENE 11 17 1028.8 - 0.8 - Mostly clear 10 - - - -
18/08:30am 21.0 ENE 10 14 1028.5 - 0.8 - Partly cloudy 10 - - - -
18/08:00am 20.0 ENE 9 13 1028.2 - 0.8 - Partly cloudy 10 - - - -
18/07:30am 19.4 NNE 5 7 1027.8 - 0.8 - Partly cloudy 10 - - - -
18/07:00am 19.1 ENE 7 11 1027.6 - 0.8 - Partly cloudy 10 - - - -
18/06:30am 19.1 NE 6 9 1027.1 - 0.8 - Partly cloudy 10 - - - -
18/06:02am 17.8 ENE 15 25 1027.0 - 0.8 - Partly cloudy 10 - - - -
18/06:00am 17.8 NE 13 25 1026.9 - 0.8 - Cloudy 10 - - - -
18/05:30am 16.9 NNW 4 5 1026.6 - 0.8 - Partly cloudy 10 - - - -
18/05:00am 16.9 ESE 3 5 1026.3 - 0.8 - Partly cloudy 10 - - - -
18/04:48am 16.9 ESE 6 9 1026.3 - 0.8 - Partly cloudy 10 - - - -
18/04:33am 16.9 E 6 9 1026.4 - 0.8 - Partly cloudy 5 - - - -
18/04:30am 17.0 E 6 9 1026.6 - 0.8 - Partly cloudy 8 - - - -
18/04:16am 17.0 E 4 5 1026.6 - 0.6 - Partly cloudy 10 - - - -
18/04:00am 17.0 NNE 8 14 1026.8 - 0.4 - Partly cloudy 4 - - - -
18/03:53am 17.2 NNE 13 20 1026.8 - 0.2 - Partly cloudy 5 - - - -
18/03:30am 18.6 NNE 10 19 1026.6 - 0.2 - Partly cloudy 10 - - - -
18/03:00am 19.6 ENE 6 7 1026.6 - 0.2 - Mostly cloudy 10 - - - -
18/02:30am 18.5 E 5 8 1027.0 - 0.2 - - 10 - - - -
18/02:00am 19.3 ENE 6 8 1027.4 - 0.2 - Partly cloudy 10 - - - -
18/01:30am 19.6 NE 5 6 1027.7 - 0.2 - Partly cloudy 10 - - - -

Other Formats:

Comma delimited format used in spreadsheet applications
http://www.bom.gov.au/fwo/IDN60701/IDN60701.94786.axf

JavaScript Object Notation format (JSON) in row-major order
http://www.bom.gov.au/fwo/IDN60701/IDN60701.94786.json